sensor_id;sensor_type;location;lat;lon;timestamp;temperature;humidity
11107;DHT22;5607;48.302;14.294;2023-09-30T00:00:29;18.80;99.90
11107;DHT22;5607;48.302;14.294;2023-09-30T00:03:18;18.80;99.90
11107;DHT22;5607;48.302;14.294;2023-09-30T00:06:04;18.80;99.90
11107;DHT22;5607;48.302;14.294;2023-09-30T00:08:51;18.80;99.90
11107;DHT22;5607;48.302;14.294;2023-09-30T00:11:38;18.80;99.90
11107;DHT22;5607;48.302;14.294;2023-09-30T00:14:24;18.80;99.90
11107;DHT22;5607;48.302;14.294;2023-09-30T00:17:10;18.90;99.90
11107;DHT22;5607;48.302;14.294;2023-09-30T00:19:56;18.80;99.90
11107;DHT22;5607;48.302;14.294;2023-09-30T00:22:43;18.80;99.90
11107;DHT22;5607;48.302;14.294;2023-09-30T00:25:29;18.80;99.90
11107;DHT22;5607;48.302;14.294;2023-09-30T00:28:16;18.80;99.90
11107;DHT22;5607;48.302;14.294;2023-09-30T00:31:06;18.80;99.90
11107;DHT22;5607;48.302;14.294;2023-09-30T00:33:54;18.80;99.90
11107;DHT22;5607;48.302;14.294;2023-09-30T00:36:41;18.90;99.90
11107;DHT22;5607;48.302;14.294;2023-09-30T00:39:28;18.90;99.90
11107;DHT22;5607;48.302;14.294;2023-09-30T00:42:17;18.90;99.90
11107;DHT22;5607;48.302;14.294;2023-09-30T00:45:04;18.90;99.90
11107;DHT22;5607;48.302;14.294;2023-09-30T00:47:51;18.90;99.90
11107;DHT22;5607;48.302;14.294;2023-09-30T00:50:37;18.90;99.90
11107;DHT22;5607;48.302;14.294;2023-09-30T00:53:23;18.90;99.90
11107;DHT22;5607;48.302;14.294;2023-09-30T00:56:10;19.00;99.90
11107;DHT22;5607;48.302;14.294;2023-09-30T00:58:58;18.90;99.90
11107;DHT22;5607;48.302;14.294;2023-09-30T01:01:45;18.90;99.90
11107;DHT22;5607;48.302;14.294;2023-09-30T01:04:31;18.90;99.90
11107;DHT22;5607;48.302;14.294;2023-09-30T01:07:18;18.90;99.90
11107;DHT22;5607;48.302;14.294;2023-09-30T01:10:07;18.90;99.90
11107;DHT22;5607;48.302;14.294;2023-09-30T01:12:54;18.80;99.90
11107;DHT22;5607;48.302;14.294;2023-09-30T01:15:40;18.70;99.90
11107;DHT22;5607;48.302;14.294;2023-09-30T01:18:26;18.80;99.90
11107;DHT22;5607;48.302;14.294;2023-09-30T01:21:13;18.70;99.90
11107;DHT22;5607;48.302;14.294;2023-09-30T01:24:00;18.70;99.90
11107;DHT22;5607;48.302;14.294;2023-09-30T01:26:46;18.60;99.90
11107;DHT22;5607;48.302;14.294;2023-09-30T01:29:32;18.70;99.90
11107;DHT22;5607;48.302;14.294;2023-09-30T01:32:20;18.60;99.90
11107;DHT22;5607;48.302;14.294;2023-09-30T01:35:07;18.60;99.90
11107;DHT22;5607;48.302;14.294;2023-09-30T01:37:53;18.60;99.90
11107;DHT22;5607;48.302;14.294;2023-09-30T01:40:41;18.50;99.90
11107;DHT22;5607;48.302;14.294;2023-09-30T01:43:28;18.50;99.90
11107;DHT22;5607;48.302;14.294;2023-09-30T01:46:14;18.50;99.90
11107;DHT22;5607;48.302;14.294;2023-09-30T01:49:00;18.40;99.90
11107;DHT22;5607;48.302;14.294;2023-09-30T01:51:46;18.50;99.90
11107;DHT22;5607;48.302;14.294;2023-09-30T01:54:33;18.50;99.90
11107;DHT22;5607;48.302;14.294;2023-09-30T01:57:19;18.60;99.90
11107;DHT22;5607;48.302;14.294;2023-09-30T02:00:06;18.60;99.90
11107;DHT22;5607;48.302;14.294;2023-09-30T02:06:18;18.60;99.90
11107;DHT22;5607;48.302;14.294;2023-09-30T02:12:11;18.50;99.90
11107;DHT22;5607;48.302;14.294;2023-09-30T02:14:58;18.50;99.90
11107;DHT22;5607;48.302;14.294;2023-09-30T02:17:44;18.40;99.90
11107;DHT22;5607;48.302;14.294;2023-09-30T02:20:31;18.40;99.90
11107;DHT22;5607;48.302;14.294;2023-09-30T02:23:18;18.40;99.90
11107;DHT22;5607;48.302;14.294;2023-09-30T02:26:05;18.40;99.90
11107;DHT22;5607;48.302;14.294;2023-09-30T02:28:52;18.40;99.90
11107;DHT22;5607;48.302;14.294;2023-09-30T02:31:40;18.40;99.90
11107;DHT22;5607;48.302;14.294;2023-09-30T02:34:27;18.30;99.90
11107;DHT22;5607;48.302;14.294;2023-09-30T02:37:13;18.30;99.90
11107;DHT22;5607;48.302;14.294;2023-09-30T02:40:00;18.30;99.90
11107;DHT22;5607;48.302;14.294;2023-09-30T02:42:47;18.30;99.90
11107;DHT22;5607;48.302;14.294;2023-09-30T02:45:37;18.30;99.90
11107;DHT22;5607;48.302;14.294;2023-09-30T02:48:24;18.30;1.00
11107;DHT22;5607;48.302;14.294;2023-09-30T02:51:10;18.30;99.90
11107;DHT22;5607;48.302;14.294;2023-09-30T02:53:59;18.30;99.90
11107;DHT22;5607;48.302;14.294;2023-09-30T02:56:45;18.30;99.90
11107;DHT22;5607;48.302;14.294;2023-09-30T02:59:35;18.30;99.90
11107;DHT22;5607;48.302;14.294;2023-09-30T03:02:22;18.20;1.40
11107;DHT22;5607;48.302;14.294;2023-09-30T03:05:08;18.20;1.00
11107;DHT22;5607;48.302;14.294;2023-09-30T03:07:56;18.20;1.00
11107;DHT22;5607;48.302;14.294;2023-09-30T03:10:42;18.10;1.00
11107;DHT22;5607;48.302;14.294;2023-09-30T03:13:28;18.20;1.00
11107;DHT22;5607;48.302;14.294;2023-09-30T03:16:15;18.20;1.00
11107;DHT22;5607;48.302;14.294;2023-09-30T03:19:01;18.20;1.00
11107;DHT22;5607;48.302;14.294;2023-09-30T03:21:53;18.20;1.00
11107;DHT22;5607;48.302;14.294;2023-09-30T03:24:39;18.10;1.00
11107;DHT22;5607;48.302;14.294;2023-09-30T03:27:25;18.20;1.00
11107;DHT22;5607;48.302;14.294;2023-09-30T03:30:12;18.10;1.00
11107;DHT22;5607;48.302;14.294;2023-09-30T03:32:59;18.10;1.00
11107;DHT22;5607;48.302;14.294;2023-09-30T03:35:45;18.00;1.00
11107;DHT22;5607;48.302;14.294;2023-09-30T03:38:32;17.90;1.00
11107;DHT22;5607;48.302;14.294;2023-09-30T03:41:19;18.00;1.00
11107;DHT22;5607;48.302;14.294;2023-09-30T03:44:05;18.00;1.00
11107;DHT22;5607;48.302;14.294;2023-09-30T03:46:52;17.90;1.00
11107;DHT22;5607;48.302;14.294;2023-09-30T03:49:38;18.00;1.00
11107;DHT22;5607;48.302;14.294;2023-09-30T03:52:26;18.00;1.00
11107;DHT22;5607;48.302;14.294;2023-09-30T03:55:14;17.90;1.00
11107;DHT22;5607;48.302;14.294;2023-09-30T03:58:01;17.80;1.00
11107;DHT22;5607;48.302;14.294;2023-09-30T04:00:49;17.70;1.00
11107;DHT22;5607;48.302;14.294;2023-09-30T04:03:37;17.60;1.00
11107;DHT22;5607;48.302;14.294;2023-09-30T04:06:29;17.60;1.00
11107;DHT22;5607;48.302;14.294;2023-09-30T04:09:16;17.60;1.00
11107;DHT22;5607;48.302;14.294;2023-09-30T04:12:02;17.60;1.00
11107;DHT22;5607;48.302;14.294;2023-09-30T04:18:12;17.70;1.00
11107;DHT22;5607;48.302;14.294;2023-09-30T04:20:58;17.80;1.00
11107;DHT22;5607;48.302;14.294;2023-09-30T04:23:44;17.80;1.00
11107;DHT22;5607;48.302;14.294;2023-09-30T04:26:32;17.80;1.00
11107;DHT22;5607;48.302;14.294;2023-09-30T04:29:18;17.90;1.00
11107;DHT22;5607;48.302;14.294;2023-09-30T04:32:05;18.00;99.90
11107;DHT22;5607;48.302;14.294;2023-09-30T04:34:52;18.00;1.00
11107;DHT22;5607;48.302;14.294;2023-09-30T04:37:38;18.10;99.90
11107;DHT22;5607;48.302;14.294;2023-09-30T04:40:24;18.10;99.90
11107;DHT22;5607;48.302;14.294;2023-09-30T04:43:12;18.10;99.90
11107;DHT22;5607;48.302;14.294;2023-09-30T04:46:00;18.20;99.90
11107;DHT22;5607;48.302;14.294;2023-09-30T04:48:47;18.20;99.90
11107;DHT22;5607;48.302;14.294;2023-09-30T04:51:34;18.20;99.90
11107;DHT22;5607;48.302;14.294;2023-09-30T04:54:22;18.20;99.90
11107;DHT22;5607;48.302;14.294;2023-09-30T04:57:08;18.10;99.90
11107;DHT22;5607;48.302;14.294;2023-09-30T04:59:54;18.00;99.90
11107;DHT22;5607;48.302;14.294;2023-09-30T05:02:40;17.80;1.00
11107;DHT22;5607;48.302;14.294;2023-09-30T05:05:27;17.80;99.90
11107;DHT22;5607;48.302;14.294;2023-09-30T05:08:14;17.70;1.00
11107;DHT22;5607;48.302;14.294;2023-09-30T05:11:01;17.60;1.00
11107;DHT22;5607;48.302;14.294;2023-09-30T05:13:47;17.50;1.00
11107;DHT22;5607;48.302;14.294;2023-09-30T05:16:34;17.40;1.00
11107;DHT22;5607;48.302;14.294;2023-09-30T05:19:20;17.40;1.00
11107;DHT22;5607;48.302;14.294;2023-09-30T05:22:06;17.30;1.00
11107;DHT22;5607;48.302;14.294;2023-09-30T05:24:53;17.40;1.00
11107;DHT22;5607;48.302;14.294;2023-09-30T05:27:39;17.40;1.00
11107;DHT22;5607;48.302;14.294;2023-09-30T05:30:25;17.50;1.00
11107;DHT22;5607;48.302;14.294;2023-09-30T05:33:12;17.50;1.00
11107;DHT22;5607;48.302;14.294;2023-09-30T05:36:00;17.50;1.00
11107;DHT22;5607;48.302;14.294;2023-09-30T05:38:48;17.60;1.00
11107;DHT22;5607;48.302;14.294;2023-09-30T05:41:35;17.60;1.00
11107;DHT22;5607;48.302;14.294;2023-09-30T05:44:21;17.50;1.00
11107;DHT22;5607;48.302;14.294;2023-09-30T05:47:08;17.50;1.00
11107;DHT22;5607;48.302;14.294;2023-09-30T05:49:54;17.40;1.00
11107;DHT22;5607;48.302;14.294;2023-09-30T05:52:41;17.40;1.00
11107;DHT22;5607;48.302;14.294;2023-09-30T05:55:29;17.30;1.00
11107;DHT22;5607;48.302;14.294;2023-09-30T05:58:15;17.30;1.00
11107;DHT22;5607;48.302;14.294;2023-09-30T06:01:02;17.40;1.00
11107;DHT22;5607;48.302;14.294;2023-09-30T06:03:52;17.30;1.00
11107;DHT22;5607;48.302;14.294;2023-09-30T06:06:38;17.30;1.00
11107;DHT22;5607;48.302;14.294;2023-09-30T06:09:24;17.40;1.00
11107;DHT22;5607;48.302;14.294;2023-09-30T06:12:11;17.50;1.00
11107;DHT22;5607;48.302;14.294;2023-09-30T06:14:57;17.60;1.00
11107;DHT22;5607;48.302;14.294;2023-09-30T06:17:45;17.70;1.00
11107;DHT22;5607;48.302;14.294;2023-09-30T06:20:32;17.90;1.00
11107;DHT22;5607;48.302;14.294;2023-09-30T06:23:19;18.00;1.00
11107;DHT22;5607;48.302;14.294;2023-09-30T06:26:05;18.00;99.90
11107;DHT22;5607;48.302;14.294;2023-09-30T06:28:51;18.10;99.90
11107;DHT22;5607;48.302;14.294;2023-09-30T06:31:41;18.10;99.90
11107;DHT22;5607;48.302;14.294;2023-09-30T06:34:27;18.30;99.90
11107;DHT22;5607;48.302;14.294;2023-09-30T06:37:13;18.50;99.90
11107;DHT22;5607;48.302;14.294;2023-09-30T06:39:59;18.50;99.90
11107;DHT22;5607;48.302;14.294;2023-09-30T06:42:48;18.70;99.90
11107;DHT22;5607;48.302;14.294;2023-09-30T06:45:35;18.80;99.90
11107;DHT22;5607;48.302;14.294;2023-09-30T06:48:29;18.80;99.90
11107;DHT22;5607;48.302;14.294;2023-09-30T06:51:15;18.90;99.90
11107;DHT22;5607;48.302;14.294;2023-09-30T06:54:04;18.80;99.90
11107;DHT22;5607;48.302;14.294;2023-09-30T06:56:52;18.70;99.90
11107;DHT22;5607;48.302;14.294;2023-09-30T06:59:39;18.90;99.90
11107;DHT22;5607;48.302;14.294;2023-09-30T07:02:26;19.10;99.90
11107;DHT22;5607;48.302;14.294;2023-09-30T07:05:13;19.20;99.90
11107;DHT22;5607;48.302;14.294;2023-09-30T07:08:00;19.30;99.90
11107;DHT22;5607;48.302;14.294;2023-09-30T07:10:46;19.10;99.90
11107;DHT22;5607;48.302;14.294;2023-09-30T07:13:35;19.20;99.90
11107;DHT22;5607;48.302;14.294;2023-09-30T07:16:21;19.20;99.90
11107;DHT22;5607;48.302;14.294;2023-09-30T07:19:07;19.30;99.90
11107;DHT22;5607;48.302;14.294;2023-09-30T07:21:54;19.40;99.90
11107;DHT22;5607;48.302;14.294;2023-09-30T07:24:40;19.60;99.90
11107;DHT22;5607;48.302;14.294;2023-09-30T07:27:26;19.60;99.90
11107;DHT22;5607;48.302;14.294;2023-09-30T07:30:13;19.60;99.90
11107;DHT22;5607;48.302;14.294;2023-09-30T07:33:00;19.60;99.90
11107;DHT22;5607;48.302;14.294;2023-09-30T07:35:47;19.60;99.90
11107;DHT22;5607;48.302;14.294;2023-09-30T07:38:34;19.60;99.90
11107;DHT22;5607;48.302;14.294;2023-09-30T07:41:20;19.50;99.90
11107;DHT22;5607;48.302;14.294;2023-09-30T07:44:06;19.50;99.90
11107;DHT22;5607;48.302;14.294;2023-09-30T07:46:55;19.30;99.90
11107;DHT22;5607;48.302;14.294;2023-09-30T07:49:41;19.10;99.90
11107;DHT22;5607;48.302;14.294;2023-09-30T07:58:59;19.60;99.90
11107;DHT22;5607;48.302;14.294;2023-09-30T08:01:47;19.60;99.90
11107;DHT22;5607;48.302;14.294;2023-09-30T08:04:34;19.60;99.90
11107;DHT22;5607;48.302;14.294;2023-09-30T08:07:21;19.40;99.90
11107;DHT22;5607;48.302;14.294;2023-09-30T08:10:07;19.30;99.90
11107;DHT22;5607;48.302;14.294;2023-09-30T08:12:59;19.40;99.90
11107;DHT22;5607;48.302;14.294;2023-09-30T08:15:49;19.30;99.90
11107;DHT22;5607;48.302;14.294;2023-09-30T08:18:35;19.60;99.90
11107;DHT22;5607;48.302;14.294;2023-09-30T08:21:22;20.10;99.90
11107;DHT22;5607;48.302;14.294;2023-09-30T08:24:08;20.60;99.90
11107;DHT22;5607;48.302;14.294;2023-09-30T08:26:54;20.90;99.90
11107;DHT22;5607;48.302;14.294;2023-09-30T08:29:43;21.00;99.90
11107;DHT22;5607;48.302;14.294;2023-09-30T08:32:31;20.40;99.90
11107;DHT22;5607;48.302;14.294;2023-09-30T08:35:17;20.20;99.90
11107;DHT22;5607;48.302;14.294;2023-09-30T08:38:04;20.20;99.90
11107;DHT22;5607;48.302;14.294;2023-09-30T08:40:51;20.20;99.90
11107;DHT22;5607;48.302;14.294;2023-09-30T08:43:38;20.40;99.90
11107;DHT22;5607;48.302;14.294;2023-09-30T08:46:25;20.40;99.90
11107;DHT22;5607;48.302;14.294;2023-09-30T08:49:11;20.10;99.90
11107;DHT22;5607;48.302;14.294;2023-09-30T08:51:57;20.00;99.90
11107;DHT22;5607;48.302;14.294;2023-09-30T08:54:44;20.00;99.90
11107;DHT22;5607;48.302;14.294;2023-09-30T08:57:31;20.20;99.90
11107;DHT22;5607;48.302;14.294;2023-09-30T09:00:17;20.50;99.90
11107;DHT22;5607;48.302;14.294;2023-09-30T09:03:04;20.70;99.90
11107;DHT22;5607;48.302;14.294;2023-09-30T09:05:54;20.90;99.90
11107;DHT22;5607;48.302;14.294;2023-09-30T09:08:45;20.90;99.90
11107;DHT22;5607;48.302;14.294;2023-09-30T09:11:36;20.80;99.90
11107;DHT22;5607;48.302;14.294;2023-09-30T09:14:39;20.90;99.90
11107;DHT22;5607;48.302;14.294;2023-09-30T09:17:39;21.30;99.90
11107;DHT22;5607;48.302;14.294;2023-09-30T09:20:26;21.30;99.90
11107;DHT22;5607;48.302;14.294;2023-09-30T09:23:12;21.30;99.90
11107;DHT22;5607;48.302;14.294;2023-09-30T09:26:00;21.60;99.90
11107;DHT22;5607;48.302;14.294;2023-09-30T09:28:46;21.60;99.90
11107;DHT22;5607;48.302;14.294;2023-09-30T09:31:35;21.30;99.90
11107;DHT22;5607;48.302;14.294;2023-09-30T09:34:21;21.20;99.90
11107;DHT22;5607;48.302;14.294;2023-09-30T09:43:19;21.30;99.90
11107;DHT22;5607;48.302;14.294;2023-09-30T09:46:07;21.30;99.90
11107;DHT22;5607;48.302;14.294;2023-09-30T09:48:54;21.30;99.90
11107;DHT22;5607;48.302;14.294;2023-09-30T09:51:40;21.30;99.90
11107;DHT22;5607;48.302;14.294;2023-09-30T09:54:27;21.30;99.90
11107;DHT22;5607;48.302;14.294;2023-09-30T09:57:15;21.20;99.90
11107;DHT22;5607;48.302;14.294;2023-09-30T10:00:02;21.20;99.90
11107;DHT22;5607;48.302;14.294;2023-09-30T10:02:51;21.20;99.90
11107;DHT22;5607;48.302;14.294;2023-09-30T10:05:38;21.20;99.90
11107;DHT22;5607;48.302;14.294;2023-09-30T10:08:32;21.20;99.90
11107;DHT22;5607;48.302;14.294;2023-09-30T10:11:19;21.20;99.90
11107;DHT22;5607;48.302;14.294;2023-09-30T10:14:06;21.10;99.90
11107;DHT22;5607;48.302;14.294;2023-09-30T10:16:59;21.10;99.90
11107;DHT22;5607;48.302;14.294;2023-09-30T10:20:04;21.50;99.90
11107;DHT22;5607;48.302;14.294;2023-09-30T10:23:17;21.90;99.90
11107;DHT22;5607;48.302;14.294;2023-09-30T10:29:02;21.60;99.90
11107;DHT22;5607;48.302;14.294;2023-09-30T10:31:54;21.90;99.90
11107;DHT22;5607;48.302;14.294;2023-09-30T10:34:47;21.90;99.90
11107;DHT22;5607;48.302;14.294;2023-09-30T10:37:34;22.20;99.90
11107;DHT22;5607;48.302;14.294;2023-09-30T10:40:30;22.20;99.90
11107;DHT22;5607;48.302;14.294;2023-09-30T10:43:40;22.20;99.90
11107;DHT22;5607;48.302;14.294;2023-09-30T10:49:15;22.80;99.90
11107;DHT22;5607;48.302;14.294;2023-09-30T10:52:03;22.30;99.90
11107;DHT22;5607;48.302;14.294;2023-09-30T10:54:50;22.20;99.90
11107;DHT22;5607;48.302;14.294;2023-09-30T10:57:36;22.50;99.90
11107;DHT22;5607;48.302;14.294;2023-09-30T11:00:23;23.10;99.90
11107;DHT22;5607;48.302;14.294;2023-09-30T11:03:10;23.50;99.90
11107;DHT22;5607;48.302;14.294;2023-09-30T11:05:58;23.40;99.90
11107;DHT22;5607;48.302;14.294;2023-09-30T11:08:44;23.20;99.90
11107;DHT22;5607;48.302;14.294;2023-09-30T11:14:22;22.50;99.90
11107;DHT22;5607;48.302;14.294;2023-09-30T11:17:08;22.40;99.90
11107;DHT22;5607;48.302;14.294;2023-09-30T11:19:55;22.10;99.90
11107;DHT22;5607;48.302;14.294;2023-09-30T11:22:42;22.00;99.90
11107;DHT22;5607;48.302;14.294;2023-09-30T11:25:34;21.90;99.90
11107;DHT22;5607;48.302;14.294;2023-09-30T11:28:21;22.00;99.90
11107;DHT22;5607;48.302;14.294;2023-09-30T11:31:12;22.20;99.90
11107;DHT22;5607;48.302;14.294;2023-09-30T11:34:00;22.60;99.90
11107;DHT22;5607;48.302;14.294;2023-09-30T11:36:51;22.80;99.90
11107;DHT22;5607;48.302;14.294;2023-09-30T11:39:38;22.80;99.90
11107;DHT22;5607;48.302;14.294;2023-09-30T11:42:24;22.90;99.90
11107;DHT22;5607;48.302;14.294;2023-09-30T11:45:22;23.00;99.90
11107;DHT22;5607;48.302;14.294;2023-09-30T11:51:17;23.10;99.90
11107;DHT22;5607;48.302;14.294;2023-09-30T11:54:04;22.90;99.90
11107;DHT22;5607;48.302;14.294;2023-09-30T11:56:53;23.00;99.90
11107;DHT22;5607;48.302;14.294;2023-09-30T11:59:39;22.80;99.90
11107;DHT22;5607;48.302;14.294;2023-09-30T12:02:29;22.80;99.90
11107;DHT22;5607;48.302;14.294;2023-09-30T12:05:15;22.90;99.90
11107;DHT22;5607;48.302;14.294;2023-09-30T12:08:02;23.20;99.90
11107;DHT22;5607;48.302;14.294;2023-09-30T12:10:49;23.40;99.90
11107;DHT22;5607;48.302;14.294;2023-09-30T12:13:35;23.40;99.90
11107;DHT22;5607;48.302;14.294;2023-09-30T12:16:22;23.50;99.90
11107;DHT22;5607;48.302;14.294;2023-09-30T12:19:09;23.60;99.90
11107;DHT22;5607;48.302;14.294;2023-09-30T12:21:56;23.70;99.90
11107;DHT22;5607;48.302;14.294;2023-09-30T12:24:42;23.10;99.90
11107;DHT22;5607;48.302;14.294;2023-09-30T12:27:29;23.30;99.90
11107;DHT22;5607;48.302;14.294;2023-09-30T12:30:15;23.50;99.90
11107;DHT22;5607;48.302;14.294;2023-09-30T12:33:03;23.70;99.90
11107;DHT22;5607;48.302;14.294;2023-09-30T12:35:49;23.90;99.90
11107;DHT22;5607;48.302;14.294;2023-09-30T12:38:35;23.80;99.90
11107;DHT22;5607;48.302;14.294;2023-09-30T12:41:22;23.60;99.90
11107;DHT22;5607;48.302;14.294;2023-09-30T12:44:08;23.90;99.90
11107;DHT22;5607;48.302;14.294;2023-09-30T12:46:55;24.30;99.90
11107;DHT22;5607;48.302;14.294;2023-09-30T12:49:41;24.50;99.90
11107;DHT22;5607;48.302;14.294;2023-09-30T12:52:28;24.40;99.90
11107;DHT22;5607;48.302;14.294;2023-09-30T12:55:14;24.30;99.90
11107;DHT22;5607;48.302;14.294;2023-09-30T12:58:00;24.20;99.90
11107;DHT22;5607;48.302;14.294;2023-09-30T13:00:47;23.90;99.90
11107;DHT22;5607;48.302;14.294;2023-09-30T13:03:33;23.70;99.90
11107;DHT22;5607;48.302;14.294;2023-09-30T13:06:19;23.80;99.90
11107;DHT22;5607;48.302;14.294;2023-09-30T13:09:07;23.90;99.90
11107;DHT22;5607;48.302;14.294;2023-09-30T13:11:55;23.90;99.90
11107;DHT22;5607;48.302;14.294;2023-09-30T13:14:43;23.70;99.90
11107;DHT22;5607;48.302;14.294;2023-09-30T13:17:29;24.00;99.90
11107;DHT22;5607;48.302;14.294;2023-09-30T13:20:15;23.80;99.90
11107;DHT22;5607;48.302;14.294;2023-09-30T13:23:03;23.60;99.90
11107;DHT22;5607;48.302;14.294;2023-09-30T13:25:49;23.60;99.90
11107;DHT22;5607;48.302;14.294;2023-09-30T13:28:36;23.80;99.90
11107;DHT22;5607;48.302;14.294;2023-09-30T13:31:22;24.10;99.90
11107;DHT22;5607;48.302;14.294;2023-09-30T13:34:08;24.30;99.90
11107;DHT22;5607;48.302;14.294;2023-09-30T13:36:54;24.40;99.90
11107;DHT22;5607;48.302;14.294;2023-09-30T13:39:43;24.50;99.90
11107;DHT22;5607;48.302;14.294;2023-09-30T13:42:30;24.70;99.90
11107;DHT22;5607;48.302;14.294;2023-09-30T13:45:17;24.40;99.90
11107;DHT22;5607;48.302;14.294;2023-09-30T13:48:04;24.70;99.90
11107;DHT22;5607;48.302;14.294;2023-09-30T13:50:51;24.20;99.90
11107;DHT22;5607;48.302;14.294;2023-09-30T13:53:38;24.20;99.90
11107;DHT22;5607;48.302;14.294;2023-09-30T13:56:24;24.10;99.90
11107;DHT22;5607;48.302;14.294;2023-09-30T13:59:10;24.00;99.90
11107;DHT22;5607;48.302;14.294;2023-09-30T14:01:57;24.10;99.90
11107;DHT22;5607;48.302;14.294;2023-09-30T14:04:43;24.20;99.90
11107;DHT22;5607;48.302;14.294;2023-09-30T14:07:30;24.20;99.90
11107;DHT22;5607;48.302;14.294;2023-09-30T14:10:16;24.30;99.90
11107;DHT22;5607;48.302;14.294;2023-09-30T14:13:02;24.20;99.90
11107;DHT22;5607;48.302;14.294;2023-09-30T14:15:49;24.10;99.90
11107;DHT22;5607;48.302;14.294;2023-09-30T14:18:35;23.70;99.90
11107;DHT22;5607;48.302;14.294;2023-09-30T14:21:22;23.60;99.90
11107;DHT22;5607;48.302;14.294;2023-09-30T14:24:08;23.50;99.90
11107;DHT22;5607;48.302;14.294;2023-09-30T14:26:56;23.50;99.90
11107;DHT22;5607;48.302;14.294;2023-09-30T14:29:42;23.60;99.90
11107;DHT22;5607;48.302;14.294;2023-09-30T14:32:29;23.50;99.90
11107;DHT22;5607;48.302;14.294;2023-09-30T14:35:15;23.50;99.90
11107;DHT22;5607;48.302;14.294;2023-09-30T14:38:02;23.30;99.90
11107;DHT22;5607;48.302;14.294;2023-09-30T14:40:48;23.10;99.90
11107;DHT22;5607;48.302;14.294;2023-09-30T14:43:36;23.30;99.90
11107;DHT22;5607;48.302;14.294;2023-09-30T14:46:22;23.30;99.90
11107;DHT22;5607;48.302;14.294;2023-09-30T14:49:08;23.30;99.90
11107;DHT22;5607;48.302;14.294;2023-09-30T14:51:56;23.40;99.90
11107;DHT22;5607;48.302;14.294;2023-09-30T14:54:43;23.40;99.90
11107;DHT22;5607;48.302;14.294;2023-09-30T14:57:29;23.40;99.90
11107;DHT22;5607;48.302;14.294;2023-09-30T15:00:16;23.30;99.90
11107;DHT22;5607;48.302;14.294;2023-09-30T15:03:03;23.40;99.90
11107;DHT22;5607;48.302;14.294;2023-09-30T15:05:57;23.30;99.90
11107;DHT22;5607;48.302;14.294;2023-09-30T15:08:44;23.20;99.90
11107;DHT22;5607;48.302;14.294;2023-09-30T15:11:31;23.00;99.90
11107;DHT22;5607;48.302;14.294;2023-09-30T15:14:18;23.00;99.90
11107;DHT22;5607;48.302;14.294;2023-09-30T15:17:04;23.10;99.90
11107;DHT22;5607;48.302;14.294;2023-09-30T15:19:51;23.20;99.90
11107;DHT22;5607;48.302;14.294;2023-09-30T15:22:38;23.20;99.90
11107;DHT22;5607;48.302;14.294;2023-09-30T15:25:24;23.10;99.90
11107;DHT22;5607;48.302;14.294;2023-09-30T15:28:10;23.10;99.90
11107;DHT22;5607;48.302;14.294;2023-09-30T15:30:57;23.00;99.90
11107;DHT22;5607;48.302;14.294;2023-09-30T15:33:44;22.80;99.90
11107;DHT22;5607;48.302;14.294;2023-09-30T15:36:30;22.50;99.90
11107;DHT22;5607;48.302;14.294;2023-09-30T15:39:17;22.40;99.90
11107;DHT22;5607;48.302;14.294;2023-09-30T15:42:03;22.30;99.90
11107;DHT22;5607;48.302;14.294;2023-09-30T15:44:49;22.20;99.90
11107;DHT22;5607;48.302;14.294;2023-09-30T15:47:39;22.00;99.90
11107;DHT22;5607;48.302;14.294;2023-09-30T15:50:26;21.90;99.90
11107;DHT22;5607;48.302;14.294;2023-09-30T15:53:12;22.00;99.90
11107;DHT22;5607;48.302;14.294;2023-09-30T15:55:58;22.00;99.90
11107;DHT22;5607;48.302;14.294;2023-09-30T15:58:44;22.00;99.90
11107;DHT22;5607;48.302;14.294;2023-09-30T16:01:31;22.00;99.90
11107;DHT22;5607;48.302;14.294;2023-09-30T16:04:17;22.00;99.90
11107;DHT22;5607;48.302;14.294;2023-09-30T16:07:03;21.90;99.90
11107;DHT22;5607;48.302;14.294;2023-09-30T16:09:49;21.80;99.90
11107;DHT22;5607;48.302;14.294;2023-09-30T16:12:36;21.70;99.90
11107;DHT22;5607;48.302;14.294;2023-09-30T16:15:24;21.60;99.90
11107;DHT22;5607;48.302;14.294;2023-09-30T16:18:13;21.50;99.90
11107;DHT22;5607;48.302;14.294;2023-09-30T16:20:59;21.20;99.90
11107;DHT22;5607;48.302;14.294;2023-09-30T16:23:45;21.00;99.90
11107;DHT22;5607;48.302;14.294;2023-09-30T16:26:31;20.90;99.90
11107;DHT22;5607;48.302;14.294;2023-09-30T16:29:18;20.80;99.90
11107;DHT22;5607;48.302;14.294;2023-09-30T16:32:04;20.80;99.90
11107;DHT22;5607;48.302;14.294;2023-09-30T16:34:50;20.70;99.90
11107;DHT22;5607;48.302;14.294;2023-09-30T16:37:37;20.80;99.90
11107;DHT22;5607;48.302;14.294;2023-09-30T16:40:23;20.80;99.90
11107;DHT22;5607;48.302;14.294;2023-09-30T16:43:09;20.70;99.90
11107;DHT22;5607;48.302;14.294;2023-09-30T16:45:59;20.60;99.90
11107;DHT22;5607;48.302;14.294;2023-09-30T16:48:46;20.50;99.90
11107;DHT22;5607;48.302;14.294;2023-09-30T16:51:33;20.50;99.90
11107;DHT22;5607;48.302;14.294;2023-09-30T16:54:19;20.40;99.90
11107;DHT22;5607;48.302;14.294;2023-09-30T16:57:06;20.40;99.90
11107;DHT22;5607;48.302;14.294;2023-09-30T16:59:52;20.30;99.90
11107;DHT22;5607;48.302;14.294;2023-09-30T17:02:43;20.40;99.90
11107;DHT22;5607;48.302;14.294;2023-09-30T17:05:30;20.30;99.90
11107;DHT22;5607;48.302;14.294;2023-09-30T17:08:17;20.10;99.90
11107;DHT22;5607;48.302;14.294;2023-09-30T17:11:04;20.00;99.90
11107;DHT22;5607;48.302;14.294;2023-09-30T17:13:50;19.90;99.90
11107;DHT22;5607;48.302;14.294;2023-09-30T17:16:36;19.80;99.90
11107;DHT22;5607;48.302;14.294;2023-09-30T17:19:23;19.80;99.90
11107;DHT22;5607;48.302;14.294;2023-09-30T17:22:10;19.70;99.90
11107;DHT22;5607;48.302;14.294;2023-09-30T17:24:57;19.70;99.90
11107;DHT22;5607;48.302;14.294;2023-09-30T17:27:44;19.70;99.90
11107;DHT22;5607;48.302;14.294;2023-09-30T17:30:30;19.70;99.90
11107;DHT22;5607;48.302;14.294;2023-09-30T17:33:16;19.60;99.90
11107;DHT22;5607;48.302;14.294;2023-09-30T17:36:03;19.70;99.90
11107;DHT22;5607;48.302;14.294;2023-09-30T17:38:49;19.70;99.90
11107;DHT22;5607;48.302;14.294;2023-09-30T17:41:36;19.70;99.90
11107;DHT22;5607;48.302;14.294;2023-09-30T17:44:22;19.60;99.90
11107;DHT22;5607;48.302;14.294;2023-09-30T17:47:08;19.50;99.90
11107;DHT22;5607;48.302;14.294;2023-09-30T17:49:54;19.40;99.90
11107;DHT22;5607;48.302;14.294;2023-09-30T17:52:40;19.40;99.90
11107;DHT22;5607;48.302;14.294;2023-09-30T17:55:27;19.30;99.90
11107;DHT22;5607;48.302;14.294;2023-09-30T17:58:13;19.30;99.90
11107;DHT22;5607;48.302;14.294;2023-09-30T18:00:59;19.30;99.90
11107;DHT22;5607;48.302;14.294;2023-09-30T18:03:45;19.30;99.90
11107;DHT22;5607;48.302;14.294;2023-09-30T18:06:32;19.30;99.90
11107;DHT22;5607;48.302;14.294;2023-09-30T18:09:18;19.20;99.90
11107;DHT22;5607;48.302;14.294;2023-09-30T18:12:05;19.20;99.90